createdAt,value
2023-01-01T00:02:40.487Z,24.75
2023-01-01T00:05:48.376Z,18.67
2023-01-01T00:09:11.808Z,17.90
2023-01-01T00:12:20.022Z,33.28
2023-01-01T00:15:28.346Z,50.47
2023-01-01T00:18:36.572Z,44.47
2023-01-01T00:21:46.460Z,49.10
2023-01-01T00:24:56.116Z,37.42
2023-01-01T00:28:04.231Z,37.30
2023-01-01T00:31:13.758Z,34.38
2023-01-01T00:34:21.703Z,32.72
2023-01-01T00:37:29.680Z,31.27
2023-01-01T00:40:39.319Z,27.38
2023-01-01T00:43:47.613Z,31.92
2023-01-01T00:46:55.523Z,35.47
2023-01-01T00:50:03.847Z,26.02
2023-01-01T00:53:11.809Z,31.05
2023-01-01T00:56:21.338Z,25.05
2023-01-01T00:59:29.408Z,26.73
2023-01-01T01:02:37.818Z,26.63
2023-01-01T01:05:46.221Z,27.40
2023-01-01T01:08:54.637Z,25.50
2023-01-01T01:12:18.337Z,21.65
2023-01-01T01:15:26.981Z,25.40
2023-01-01T01:18:35.101Z,19.60
2023-01-01T01:21:43.162Z,22.70
2023-01-01T01:24:51.694Z,22.25
2023-01-01T01:28:00.943Z,22.35
2023-01-01T01:31:09.141Z,20.42
2023-01-01T01:34:21.161Z,21.77
2023-01-01T01:37:32.234Z,19.67
2023-01-01T01:40:43.793Z,17.58
2023-01-01T01:43:55.018Z,19.10
2023-01-01T01:47:03.212Z,18.65
2023-01-01T01:50:12.608Z,16.30
2023-01-01T01:53:23.948Z,15.27
2023-01-01T01:56:33.276Z,14.85
2023-01-01T01:59:43.950Z,16.23
2023-01-01T02:02:54.005Z,13.70
2023-01-01T02:06:01.925Z,12.00
2023-01-01T02:09:10.112Z,14.75
2023-01-01T02:12:18.174Z,14.10
2023-01-01T02:15:34.624Z,9.73
2023-01-01T02:18:45.903Z,11.32
2023-01-01T02:22:00.299Z,11.63
2023-01-01T02:25:13.775Z,11.15
2023-01-01T02:28:31.276Z,15.02
2023-01-01T02:31:41.582Z,7.05
2023-01-01T02:34:51.170Z,13.23
2023-01-01T02:38:00.452Z,12.40
2023-01-01T02:41:10.602Z,12.30
2023-01-01T02:44:20.511Z,11.23
2023-01-01T02:47:28.592Z,9.48
2023-01-01T02:50:36.871Z,9.63
2023-01-01T02:53:47.842Z,8.85
2023-01-01T02:56:57.772Z,9.90
2023-01-01T03:00:19.673Z,9.23
2023-01-01T03:03:29.523Z,8.25
2023-01-01T03:06:40.557Z,7.38
2023-01-01T03:09:51.891Z,7.57
2023-01-01T03:13:01.688Z,8.88
2023-01-01T03:16:14.071Z,8.90
2023-01-01T03:19:23.982Z,7.22
2023-01-01T03:22:33.580Z,6.85
2023-01-01T03:25:43.293Z,7.57
2023-01-01T03:28:54.302Z,6.85
2023-01-01T03:32:05.186Z,6.65
2023-01-01T03:35:13.855Z,14.05
2023-01-01T03:38:23.704Z,6.65
2023-01-01T03:41:35.819Z,8.90
2023-01-01T03:44:46.726Z,7.32
2023-01-01T03:47:56.083Z,5.78
2023-01-01T03:51:06.523Z,7.95
2023-01-01T03:54:21.319Z,6.53
2023-01-01T03:57:32.048Z,5.57
2023-01-01T04:00:52.269Z,6.43
2023-01-01T04:04:02.043Z,6.57
2023-01-01T04:07:15.162Z,7.28
2023-01-01T04:10:24.257Z,7.07
2023-01-01T04:13:32.429Z,5.32
2023-01-01T04:16:40.826Z,5.50
2023-01-01T04:19:55.005Z,6.32
2023-01-01T04:23:03.418Z,6.47
2023-01-01T04:26:13.958Z,5.80
2023-01-01T04:29:22.006Z,5.25
2023-01-01T04:32:30.827Z,5.07
2023-01-01T04:35:40.211Z,6.38
2023-01-01T04:38:48.224Z,4.72
2023-01-01T04:41:56.382Z,7.78
2023-01-01T04:45:04.564Z,4.45
2023-01-01T04:48:12.808Z,4.85
2023-01-01T04:51:22.517Z,6.60
2023-01-01T04:54:30.789Z,4.22
2023-01-01T04:57:38.706Z,7.28
2023-01-01T05:00:50.091Z,5.78
2023-01-01T05:03:58.177Z,4.55
2023-01-01T05:07:07.612Z,6.47
2023-01-01T05:10:15.804Z,5.50
2023-01-01T05:13:24.165Z,5.53
2023-01-01T05:16:33.150Z,7.10
2023-01-01T05:19:41.324Z,6.75
2023-01-01T05:22:50.599Z,6.72
2023-01-01T05:25:59.003Z,4.65
2023-01-01T05:29:13.797Z,7.75
2023-01-01T05:32:24.495Z,7.85
2023-01-01T05:35:32.732Z,5.90
2023-01-01T05:38:42.437Z,6.40
2023-01-01T05:41:51.562Z,4.78
2023-01-01T05:44:59.486Z,7.40
2023-01-01T05:48:07.809Z,4.82
2023-01-01T05:51:16.736Z,6.18
2023-01-01T05:54:26.007Z,5.93
2023-01-01T05:57:33.911Z,4.63
2023-01-01T06:00:42.049Z,6.43
2023-01-01T06:03:50.143Z,5.65
2023-01-01T06:06:58.190Z,4.57
2023-01-01T06:10:08.427Z,6.55
2023-01-01T06:13:16.695Z,5.90
2023-01-01T06:16:24.637Z,7.88
2023-01-01T06:19:32.598Z,4.00
2023-01-01T06:22:40.828Z,5.90
2023-01-01T06:25:50.461Z,7.43
2023-01-01T06:28:58.883Z,5.25
2023-01-01T06:32:07.061Z,5.05
2023-01-01T06:35:15.447Z,5.68
2023-01-01T06:38:23.553Z,4.72
2023-01-01T06:41:33.252Z,5.22
2023-01-01T06:44:41.429Z,5.28
2023-01-01T06:47:49.623Z,5.80
2023-01-01T06:50:57.825Z,5.53
2023-01-01T06:54:06.055Z,4.07
2023-01-01T06:57:15.929Z,5.70
2023-01-01T07:00:24.035Z,5.05
2023-01-01T07:03:32.398Z,5.45
2023-01-01T07:06:40.693Z,7.05
2023-01-01T07:09:48.607Z,6.75
2023-01-01T07:12:57.989Z,5.55
2023-01-01T07:16:12.315Z,5.45
2023-01-01T07:19:21.348Z,4.68
2023-01-01T07:22:29.473Z,5.28
2023-01-01T07:25:37.421Z,7.45
2023-01-01T07:28:47.007Z,5.53
2023-01-01T07:31:55.314Z,4.63
2023-01-01T07:35:03.355Z,4.78
2023-01-01T07:38:11.550Z,5.03
2023-01-01T07:41:19.748Z,5.72
2023-01-01T07:44:29.376Z,4.65
2023-01-01T07:47:37.176Z,3.95
2023-01-01T07:50:45.342Z,5.82
2023-01-01T07:53:53.578Z,4.50
2023-01-01T07:57:01.389Z,6.22
2023-01-01T08:00:12.849Z,5.53
2023-01-01T08:03:20.685Z,7.28
2023-01-01T08:06:29.106Z,6.47
2023-01-01T08:09:37.212Z,4.18
2023-01-01T08:12:45.104Z,5.00
2023-01-01T08:15:55.624Z,6.38
2023-01-01T08:19:03.651Z,6.32
2023-01-01T08:22:11.960Z,5.03
2023-01-01T08:25:20.241Z,5.07
2023-01-01T08:28:28.577Z,5.32
2023-01-01T08:31:38.060Z,5.15
2023-01-01T08:34:45.929Z,4.47
2023-01-01T08:37:54.219Z,6.35
2023-01-01T08:41:02.292Z,5.05
2023-01-01T08:44:10.200Z,5.60
2023-01-01T08:47:23.833Z,5.40
2023-01-01T08:50:32.085Z,5.07
2023-01-01T08:53:43.064Z,4.68
2023-01-01T08:56:55.010Z,6.25
2023-01-01T09:00:02.765Z,6.18
2023-01-01T09:03:14.171Z,5.13
2023-01-01T09:06:22.374Z,5.88
2023-01-01T09:09:31.791Z,6.85
2023-01-01T09:12:40.215Z,5.65
2023-01-01T09:15:48.310Z,5.32
2023-01-01T09:18:57.697Z,4.97
2023-01-01T09:22:05.553Z,6.90
2023-01-01T09:25:13.784Z,5.22
2023-01-01T09:28:25.928Z,5.07
2023-01-01T09:31:34.108Z,6.40
2023-01-01T09:34:47.376Z,7.72
2023-01-01T09:38:00.325Z,6.32
2023-01-01T09:41:13.031Z,5.43
2023-01-01T09:44:30.887Z,5.22
2023-01-01T09:47:40.534Z,4.53
2023-01-01T09:50:49.815Z,5.70
2023-01-01T09:54:00.014Z,6.28
2023-01-01T09:57:14.866Z,5.53
2023-01-01T10:00:26.227Z,8.40
2023-01-01T10:03:38.694Z,5.68
2023-01-01T10:06:51.120Z,6.75
2023-01-01T10:10:03.539Z,6.30
2023-01-01T10:13:18.493Z,5.60
2023-01-01T10:16:31.571Z,5.45
2023-01-01T10:19:40.614Z,7.20
2023-01-01T10:22:51.743Z,6.72
2023-01-01T10:25:59.796Z,6.55
2023-01-01T10:29:11.131Z,6.40
2023-01-01T10:32:21.740Z,5.35
2023-01-01T10:35:33.195Z,10.52
2023-01-01T10:38:42.829Z,5.30
2023-01-01T10:41:50.781Z,6.00
2023-01-01T10:44:59.971Z,8.52
2023-01-01T10:48:18.369Z,5.80
2023-01-01T10:51:26.790Z,6.05
2023-01-01T10:54:36.633Z,8.30
2023-01-01T10:57:44.817Z,5.20
2023-01-01T11:01:01.052Z,6.15
2023-01-01T11:04:21.016Z,10.52
2023-01-01T11:07:30.583Z,5.88
2023-01-01T11:10:40.193Z,5.07
2023-01-01T11:13:50.366Z,7.90
2023-01-01T11:16:58.732Z,7.22
2023-01-01T11:20:08.057Z,6.45
2023-01-01T11:23:30.200Z,13.00
2023-01-01T11:26:39.730Z,8.25
2023-01-01T11:29:47.806Z,5.65
2023-01-01T11:32:57.891Z,6.13
2023-01-01T11:36:06.775Z,8.85
2023-01-01T11:39:22.501Z,8.50
2023-01-01T11:42:33.548Z,7.68
2023-01-01T11:45:42.076Z,5.60
2023-01-01T11:48:50.169Z,5.78
2023-01-01T11:51:58.275Z,8.10
2023-01-01T11:55:15.991Z,6.35
2023-01-01T11:58:28.247Z,5.93
2023-01-01T12:01:40.229Z,7.32
2023-01-01T12:04:49.849Z,8.40
2023-01-01T12:07:58.670Z,11.48
2023-01-01T12:11:12.337Z,5.95
2023-01-01T12:14:27.114Z,4.57
2023-01-01T12:17:40.960Z,5.65
2023-01-01T12:20:50.354Z,3.58
2023-01-01T12:23:58.763Z,5.15
2023-01-01T12:27:15.478Z,6.32
2023-01-01T12:30:25.291Z,4.45
2023-01-01T12:33:42.689Z,4.03
2023-01-01T12:36:53.972Z,7.75
2023-01-01T12:40:32.292Z,4.88
2023-01-01T12:43:44.282Z,5.28
2023-01-01T12:46:55.217Z,5.20
2023-01-01T12:50:08.750Z,3.33
2023-01-01T12:53:22.122Z,3.92
2023-01-01T12:56:30.252Z,4.28
2023-01-01T12:59:39.784Z,6.78
2023-01-01T13:02:50.848Z,4.00
2023-01-01T13:05:58.873Z,3.90
2023-01-01T13:09:09.092Z,4.00
2023-01-01T13:12:18.860Z,6.20
2023-01-01T13:15:44.373Z,4.05
2023-01-01T13:18:58.966Z,3.95
2023-01-01T13:22:39.668Z,5.05
2023-01-01T13:25:47.973Z,4.28
2023-01-01T13:29:33.481Z,5.22
2023-01-01T13:33:16.591Z,5.47
2023-01-01T13:36:35.679Z,3.47
2023-01-01T13:39:53.853Z,5.28
2023-01-01T13:43:07.151Z,5.28
2023-01-01T13:46:15.560Z,4.75
2023-01-01T13:49:27.757Z,4.38
2023-01-01T13:52:49.420Z,5.45
2023-01-01T13:56:18.135Z,3.28
2023-01-01T13:59:52.647Z,5.00
2023-01-01T14:03:01.823Z,5.82
2023-01-01T14:06:12.231Z,3.35
2023-01-01T14:09:21.793Z,3.70
2023-01-01T14:12:30.247Z,5.97
2023-01-01T14:15:39.633Z,5.20
2023-01-01T14:18:48.886Z,3.53
2023-01-01T14:21:57.040Z,4.82
2023-01-01T14:25:09.508Z,5.95
2023-01-01T14:28:20.403Z,5.53
2023-01-01T14:31:29.167Z,3.33
2023-01-01T14:34:37.139Z,5.38
2023-01-01T14:37:45.444Z,4.13
2023-01-01T14:41:07.889Z,4.03
2023-01-01T14:44:17.269Z,3.58
2023-01-01T14:47:26.773Z,5.15
2023-01-01T14:50:35.156Z,3.35
2023-01-01T14:53:43.370Z,4.57
2023-01-01T14:56:52.898Z,2.80
2023-01-01T15:00:00.780Z,3.35
2023-01-01T15:03:13.602Z,3.55
2023-01-01T15:06:21.557Z,3.47
2023-01-01T15:09:29.925Z,3.83
2023-01-01T15:12:41.278Z,2.45
2023-01-01T15:15:50.027Z,3.17
2023-01-01T15:18:58.268Z,6.03
2023-01-01T15:22:10.702Z,4.05
2023-01-01T15:25:19.624Z,3.70
2023-01-01T15:28:29.003Z,4.97
2023-01-01T15:31:38.542Z,4.32
2023-01-01T15:34:49.697Z,8.32
2023-01-01T15:37:58.339Z,2.92
2023-01-01T15:41:24.267Z,4.32
2023-01-01T15:44:36.182Z,6.43
2023-01-01T15:47:44.249Z,6.00
2023-01-01T15:51:01.800Z,3.97
2023-01-01T15:54:15.751Z,7.80
2023-01-01T15:57:24.318Z,7.00
2023-01-01T16:00:36.686Z,3.67
2023-01-01T16:03:44.957Z,3.33
2023-01-01T16:06:53.608Z,3.70
2023-01-01T16:10:01.729Z,6.53
2023-01-01T16:13:09.894Z,4.78
2023-01-01T16:16:30.022Z,3.97
2023-01-01T16:19:38.239Z,5.05
2023-01-01T16:22:46.428Z,12.88
2023-01-01T16:25:54.502Z,4.47
2023-01-01T16:29:02.601Z,7.70
2023-01-01T16:32:15.481Z,6.45
2023-01-01T16:35:23.372Z,7.45
2023-01-01T16:38:31.757Z,6.57
2023-01-01T16:41:40.625Z,3.42
2023-01-01T16:44:49.056Z,7.07
2023-01-01T16:47:58.479Z,3.25
2023-01-01T16:51:07.116Z,4.75
2023-01-01T16:54:15.213Z,5.35
2023-01-01T16:57:23.272Z,6.18
2023-01-01T17:00:31.427Z,7.63
2023-01-01T17:03:41.190Z,6.65
2023-01-01T17:06:49.157Z,5.85
2023-01-01T17:09:57.029Z,5.00
2023-01-01T17:13:05.300Z,8.27
2023-01-01T17:16:17.846Z,8.13
2023-01-01T17:19:32.859Z,6.47
2023-01-01T17:22:41.319Z,7.90
2023-01-01T17:25:49.235Z,6.75
2023-01-01T17:29:00.832Z,11.82
2023-01-01T17:32:09.332Z,7.55
2023-01-01T17:35:18.742Z,16.58
2023-01-01T17:38:26.928Z,17.10
2023-01-01T17:41:35.226Z,15.10
2023-01-01T17:44:43.424Z,12.38
2023-01-01T17:47:51.609Z,14.05
2023-01-01T17:51:01.325Z,14.82
2023-01-01T17:54:13.152Z,11.32
2023-01-01T17:57:21.284Z,16.03
2023-01-01T18:00:29.391Z,12.20
2023-01-01T18:03:37.789Z,13.80
2023-01-01T18:06:54.183Z,12.43
2023-01-01T18:10:02.533Z,11.20
2023-01-01T18:13:10.500Z,9.60
2023-01-01T18:16:18.700Z,10.68
2023-01-01T18:19:27.710Z,9.27
2023-01-01T18:22:42.907Z,10.10
2023-01-01T18:25:51.268Z,9.30
2023-01-01T18:29:00.425Z,9.95
2023-01-01T18:32:08.244Z,7.82
2023-01-01T18:35:16.264Z,8.27
2023-01-01T18:38:25.948Z,11.98
2023-01-01T18:42:04.632Z,7.65
2023-01-01T18:45:16.859Z,8.18
2023-01-01T18:48:24.811Z,9.65
2023-01-01T18:51:33.017Z,8.13
2023-01-01T18:54:42.817Z,10.10
2023-01-01T18:57:53.473Z,9.32
2023-01-01T19:01:01.854Z,7.03
2023-01-01T19:04:12.109Z,7.40
2023-01-01T19:07:20.354Z,5.53
2023-01-01T19:10:35.803Z,7.05
2023-01-01T19:13:44.675Z,7.63
2023-01-01T19:16:53.475Z,6.00
2023-01-01T19:20:01.818Z,7.15
2023-01-01T19:22:49.918Z,6.72
2023-01-01T19:25:39.844Z,5.90
2023-01-01T19:28:32.560Z,7.78
2023-01-01T19:31:20.733Z,9.55
2023-01-01T19:34:08.844Z,6.75
2023-01-01T19:36:58.916Z,5.05
2023-01-01T19:39:47.179Z,7.65
2023-01-01T19:42:36.457Z,5.45
2023-01-01T19:45:25.049Z,5.68
2023-01-01T19:48:12.849Z,7.10
2023-01-01T19:51:00.566Z,6.38
2023-01-01T19:53:48.503Z,8.75
2023-01-01T19:56:36.524Z,5.85
2023-01-01T19:59:32.631Z,6.15
2023-01-01T20:02:50.066Z,6.15
2023-01-01T20:05:34.937Z,5.72
2023-01-01T20:08:23.335Z,6.65
2023-01-01T20:11:11.442Z,6.43
2023-01-01T20:13:59.513Z,5.20
2023-01-01T20:16:50.794Z,6.57
2023-01-01T20:19:40.206Z,7.05
2023-01-01T20:22:27.962Z,6.53
2023-01-01T20:25:15.676Z,7.55
2023-01-01T20:28:21.126Z,6.32
2023-01-01T20:31:27.864Z,4.45
2023-01-01T20:34:37.152Z,8.30
2023-01-01T20:37:44.174Z,4.32
2023-01-01T20:40:52.606Z,5.07
2023-01-01T20:44:01.584Z,4.85
2023-01-01T20:47:09.756Z,4.95
2023-01-01T20:50:19.203Z,5.53
2023-01-01T20:53:27.547Z,6.53
2023-01-01T20:56:35.477Z,5.32
2023-01-01T20:59:43.536Z,2.35
2023-01-01T21:02:51.788Z,5.93
2023-01-01T21:06:01.312Z,5.60
2023-01-01T21:09:09.636Z,5.95
2023-01-01T21:12:17.901Z,4.85
2023-01-01T21:15:25.923Z,5.70
2023-01-01T21:18:34.088Z,6.22
2023-01-01T21:21:46.089Z,2.75
2023-01-01T21:24:58.789Z,5.82
2023-01-01T21:28:14.424Z,5.18
2023-01-01T21:31:22.650Z,4.70
2023-01-01T21:34:24.303Z,6.45
2023-01-01T21:37:39.229Z,6.13
2023-01-01T21:40:40.164Z,4.20
2023-01-01T21:43:30.896Z,4.55
2023-01-01T21:46:30.016Z,4.65
2023-01-01T21:49:20.054Z,4.05
2023-01-01T21:52:12.853Z,5.57
2023-01-01T21:58:13.006Z,5.30
2023-01-01T22:01:03.055Z,5.95
2023-01-01T22:03:53.349Z,6.82
2023-01-01T22:06:42.909Z,7.53
2023-01-01T22:09:31.921Z,5.88
2023-01-01T22:12:24.457Z,5.32
2023-01-01T22:15:28.468Z,3.50
2023-01-01T22:18:22.931Z,7.65
2023-01-01T22:21:15.631Z,6.18
2023-01-01T22:24:03.828Z,6.20
2023-01-01T22:26:51.715Z,5.25
2023-01-01T22:29:41.040Z,11.70
2023-01-01T22:32:29.853Z,10.80
2023-01-01T22:35:20.146Z,6.50
2023-01-01T22:38:07.901Z,6.57
2023-01-01T22:40:55.888Z,6.25
2023-01-01T22:43:44.541Z,11.18
2023-01-01T22:46:35.928Z,7.22
2023-01-01T22:49:24.973Z,6.57
2023-01-01T22:52:12.829Z,5.10
2023-01-01T22:55:00.891Z,6.22
2023-01-01T22:57:48.938Z,7.85
2023-01-01T23:00:37.126Z,6.10
2023-01-01T23:03:26.191Z,5.90
2023-01-01T23:06:14.233Z,8.93
2023-01-01T23:09:02.425Z,8.40
2023-01-01T23:11:50.089Z,7.78
2023-01-01T23:14:55.889Z,11.38
2023-01-01T23:17:44.037Z,6.07
2023-01-01T23:20:33.523Z,6.78
2023-01-01T23:23:21.491Z,9.27
2023-01-01T23:26:09.366Z,7.75
2023-01-01T23:29:17.259Z,6.10
2023-01-01T23:32:25.435Z,9.30
2023-01-01T23:35:35.103Z,8.60
2023-01-01T23:38:43.305Z,6.55
2023-01-01T23:41:51.586Z,9.57
2023-01-01T23:44:59.569Z,6.93
2023-01-01T23:48:07.973Z,6.22
2023-01-01T23:51:17.719Z,4.07
2023-01-01T23:54:25.912Z,7.65
2023-01-01T23:57:34.164Z,5.78
